Time;durP1;ratioP1;P1;durP2;ratioP2;P2;SDS_P1;SDS_P2;PMS_P1;PMS_P2;Temp;Humidity;BMP_temperature;BMP_pressure;BME280_temperature;BME280_humidity;BME280_pressure;Samples;Min_cycle;Max_cycle;Signal;HPM_P1;HPM_P2
2022/09/21 00:04:40;;;;;;;4.80;3.40;;;10.20;99.90;;;;;;10533446;28;20228;-91
2022/09/21 00:10:03;;;;;;;4.53;2.70;;;10.20;99.90;;;;;;10568146;28;20197;-90
2022/09/21 00:15:25;;;;;;;4.20;2.70;;;10.20;99.90;;;;;;10553278;28;20194;-91
2022/09/21 00:20:47;;;;;;;4.90;2.80;;;10.10;99.90;;;;;;10541642;28;20270;-86
2022/09/21 00:26:11;;;;;;;4.90;2.77;;;10.10;99.90;;;;;;10547253;28;20194;-85
2022/09/21 00:31:32;;;;;;;4.30;2.20;;;10.10;99.90;;;;;;10552328;28;20559;-90
2022/09/21 00:36:53;;;;;;;3.17;2.03;;;10.10;99.90;;;;;;10532867;28;20247;-91
2022/09/21 00:42:29;;;;;;;5.10;2.37;;;10.10;99.90;;;;;;10537530;28;20198;-83
2022/09/21 00:47:52;;;;;;;2.97;2.40;;;10.00;99.90;;;;;;10568008;28;20395;-84
2022/09/21 00:53:14;;;;;;;4.13;2.00;;;10.00;99.90;;;;;;10551866;28;20265;-81
2022/09/21 00:58:47;;;;;;;2.97;1.90;;;10.00;99.90;;;;;;10551271;28;20301;-91
2022/09/21 01:04:10;;;;;;;3.40;1.97;;;10.00;99.90;;;;;;10565235;28;20206;-90
2022/09/21 01:09:32;;;;;;;5.63;1.93;;;10.00;99.90;;;;;;10512000;28;20206;-89
2022/09/21 01:15:19;;;;;;;6.17;2.23;;;10.00;99.90;;;;;;10550218;28;20201;-89
2022/09/21 01:21:10;;;;;;;4.27;1.87;;;9.90;99.90;;;;;;10564845;28;20238;-89
2022/09/21 01:26:34;;;;;;;4.50;1.80;;;9.90;99.90;;;;;;10565068;28;20198;-90
2022/09/21 01:32:06;;;;;;;2.73;1.77;;;9.90;99.90;;;;;;10549812;28;20276;-88
2022/09/21 01:37:39;;;;;;;2.70;1.40;;;10.00;99.90;;;;;;10536039;28;20252;-91
2022/09/21 01:43:01;;;;;;;3.90;2.17;;;10.10;99.90;;;;;;10556624;28;20494;-89
2022/09/21 01:48:25;;;;;;;5.03;2.00;;;10.20;99.90;;;;;;10556666;28;20202;-89
2022/09/21 01:53:57;;;;;;;2.40;1.70;;;10.20;99.90;;;;;;10563322;28;20268;-91
2022/09/21 01:59:29;;;;;;;2.00;1.57;;;10.30;99.90;;;;;;10548841;28;20279;-92
2022/09/21 02:04:50;;;;;;;4.03;2.20;;;10.30;99.90;;;;;;10542693;28;20227;-91
2022/09/21 02:10:46;;;;;;;3.00;1.90;;;10.40;99.90;;;;;;10521114;28;20199;-91
2022/09/21 02:16:07;;;;;;;4.17;1.93;;;10.30;99.90;;;;;;10518068;28;20193;-92
2022/09/21 02:22:17;;;;;;;3.23;1.83;;;10.30;99.90;;;;;;10562171;28;20277;-80
2022/09/21 02:27:53;;;;;;;2.00;1.50;;;10.30;99.90;;;;;;10299222;28;20203;-91
2022/09/21 02:33:28;;;;;;;2.17;1.70;;;10.20;99.90;;;;;;10285661;28;20252;-90
2022/09/21 02:38:57;;;;;;;2.60;1.10;;;10.10;99.90;;;;;;10313022;28;20273;-85
2022/09/21 02:44:31;;;;;;;3.23;1.80;;;10.10;99.90;;;;;;10298659;28;20221;-88
2022/09/21 02:49:57;;;;;;;5.77;1.77;;;10.10;99.90;;;;;;10315665;28;20242;-83
2022/09/21 02:55:18;;;;;;;3.17;1.67;;;10.10;99.90;;;;;;10314564;28;20499;-80
2022/09/21 03:00:40;;;;;;;3.23;1.70;;;10.10;99.90;;;;;;10340199;28;20242;-81
2022/09/21 03:06:02;;;;;;;2.70;1.60;;;10.10;99.90;;;;;;10505118;28;20205;-90
2022/09/21 03:11:24;;;;;;;2.90;1.60;;;10.10;99.90;;;;;;10513566;28;20215;-91
2022/09/21 03:16:45;;;;;;;1.57;1.43;;;10.20;99.90;;;;;;10515801;28;20212;-92
2022/09/21 03:22:07;;;;;;;1.63;1.40;;;10.20;99.90;;;;;;10499517;28;20212;-86
2022/09/21 03:27:28;;;;;;;1.60;1.30;;;10.20;99.90;;;;;;10560721;28;20187;-91
2022/09/21 03:32:51;;;;;;;1.57;1.20;;;10.10;99.90;;;;;;10554812;28;20457;-91
2022/09/21 03:38:12;;;;;;;1.57;1.20;;;10.10;99.90;;;;;;10568218;28;20229;-87
2022/09/21 03:43:34;;;;;;;2.17;1.50;;;10.10;99.90;;;;;;10553682;28;20424;-80
2022/09/21 03:48:55;;;;;;;5.40;1.50;;;10.20;99.90;;;;;;10553989;28;20229;-80
2022/09/21 04:01:43;;;;;;;1.73;1.40;;;10.10;99.90;;;;;;10585440;28;20206;-80
2022/09/21 04:07:05;;;;;;;2.57;1.60;;;10.10;99.90;;;;;;10596691;28;20220;-90
2022/09/21 04:17:50;;;;;;;3.23;1.73;;;10.10;99.90;;;;;;10566921;28;20256;-91
2022/09/21 04:23:11;;;;;;;2.33;1.90;;;10.10;99.90;;;;;;10566969;28;20194;-92
2022/09/21 04:28:33;;;;;;;3.40;1.80;;;10.00;99.90;;;;;;10510109;28;20395;-80
2022/09/21 04:33:56;;;;;;;3.17;2.20;;;10.00;99.90;;;;;;10524411;28;20221;-80
2022/09/21 04:39:17;;;;;;;2.53;1.90;;;10.00;99.90;;;;;;10525279;28;20388;-91
2022/09/21 04:44:38;;;;;;;4.27;2.10;;;9.90;99.90;;;;;;10542864;28;20235;-89
2022/09/21 04:49:59;;;;;;;3.37;2.40;;;9.90;99.90;;;;;;10552136;28;20515;-91
2022/09/21 04:55:20;;;;;;;5.40;3.00;;;9.90;99.90;;;;;;10551141;28;20197;-82
2022/09/21 05:00:42;;;;;;;3.83;2.50;;;9.90;99.90;;;;;;10551154;28;20220;-87
2022/09/21 05:06:04;;;;;;;3.00;2.00;;;9.90;99.90;;;;;;10547732;28;20218;-91
2022/09/21 05:11:26;;;;;;;3.07;1.87;;;9.90;99.90;;;;;;10551166;28;20204;-91
2022/09/21 05:16:48;;;;;;;3.13;1.60;;;10.00;99.90;;;;;;10550308;28;20304;-86
2022/09/21 05:22:09;;;;;;;7.77;2.07;;;10.10;99.90;;;;;;10564889;28;20225;-87
2022/09/21 05:27:31;;;;;;;2.53;1.50;;;10.20;99.90;;;;;;10538159;28;20266;-87
2022/09/21 05:33:03;;;;;;;4.83;1.40;;;10.30;99.90;;;;;;10549516;28;20260;-91
2022/09/21 05:38:24;;;;;;;3.67;2.03;;;10.30;99.90;;;;;;10549869;28;20295;-88
2022/09/21 05:43:45;;;;;;;3.33;2.00;;;10.30;99.90;;;;;;10565413;28;20481;-83
2022/09/21 05:49:26;;;;;;;4.83;2.60;;;10.40;99.90;;;;;;10549792;28;20202;-85
2022/09/21 05:55:14;;;;;;;5.23;2.43;;;10.40;99.90;;;;;;10549111;28;20204;-79
2022/09/21 06:01:10;;;;;;;3.03;1.80;;;10.40;99.90;;;;;;10562353;28;20219;-79
2022/09/21 06:06:31;;;;;;;2.83;1.80;;;10.50;99.90;;;;;;10549944;28;20301;-79
2022/09/21 06:11:53;;;;;;;4.53;2.30;;;10.70;99.90;;;;;;10549561;28;20208;-88
2022/09/21 06:17:14;;;;;;;4.67;1.60;;;10.80;99.90;;;;;;10563721;28;20235;-89
2022/09/21 06:22:35;;;;;;;2.17;1.50;;;10.90;99.90;;;;;;10562409;28;20367;-88
2022/09/21 06:28:07;;;;;;;3.17;1.70;;;11.00;99.90;;;;;;10560671;28;20231;-89
2022/09/21 06:33:28;;;;;;;2.90;1.63;;;11.10;99.90;;;;;;10561574;28;20316;-87
2022/09/21 06:38:49;;;;;;;7.57;1.83;;;11.30;99.90;;;;;;10561655;28;20227;-89
2022/09/21 06:44:10;;;;;;;2.57;1.60;;;11.70;99.90;;;;;;10561801;28;20195;-83
2022/09/21 06:49:32;;;;;;;1.20;1.10;;;12.10;40.60;;;;;;10547571;28;20202;-87
2022/09/21 06:54:53;;;;;;;2.70;1.87;;;12.30;1.00;;;;;;10561458;28;20292;-84
2022/09/21 07:00:15;;;;;;;2.90;1.77;;;12.30;1.00;;;;;;10527896;28;20240;-88
2022/09/21 07:05:36;;;;;;;2.37;1.50;;;12.20;1.00;;;;;;10516878;28;20185;-89
2022/09/21 07:10:59;;;;;;;3.07;1.63;;;12.00;97.20;;;;;;10543998;28;20218;-85
2022/09/21 07:16:20;;;;;;;1.43;1.30;;;11.80;99.90;;;;;;10537026;28;20208;-89
2022/09/21 07:21:41;;;;;;;3.67;2.27;;;11.90;99.90;;;;;;10543341;28;20213;-86
2022/09/21 07:27:03;;;;;;;4.80;2.00;;;11.90;99.90;;;;;;10513464;28;20191;-85
2022/09/21 07:32:25;;;;;;;5.60;1.97;;;12.00;99.90;;;;;;10521218;28;20257;-89
2022/09/21 07:37:46;;;;;;;4.60;3.37;;;12.20;99.90;;;;;;10540703;28;20303;-84
2022/09/21 07:43:07;;;;;;;4.63;1.90;;;12.30;99.90;;;;;;10518039;28;20303;-87
2022/09/21 07:48:29;;;;;;;2.07;1.67;;;12.40;99.90;;;;;;10543114;28;20281;-82
2022/09/21 07:53:58;;;;;;;3.37;1.50;;;12.60;69.80;;;;;;10559634;28;20501;-81
2022/09/21 07:59:19;;;;;;;3.20;1.40;;;12.90;1.00;;;;;;10538290;28;20223;-80
2022/09/21 08:04:40;;;;;;;4.45;0.88;;;13.40;1.00;;;;;;10564113;28;20207;-80
2022/09/21 08:10:03;;;;;;;1.70;0.95;;;15.00;1.00;;;;;;10548787;28;20193;-87
2022/09/21 08:15:27;;;;;;;1.70;1.05;;;16.70;1.00;;;;;;10548819;28;20224;-87
2022/09/21 08:21:09;;;;;;;1.50;1.02;;;17.50;1.00;;;;;;10544620;28;20230;-87
2022/09/21 08:26:32;;;;;;;2.65;1.52;;;16.80;1.00;;;;;;10563824;28;20198;-83
2022/09/21 08:31:53;;;;;;;2.33;1.73;;;15.70;1.00;;;;;;10566047;28;20239;-81
2022/09/21 08:37:15;;;;;;;3.53;1.35;;;15.60;99.90;;;;;;10556768;28;20237;-82
2022/09/21 08:42:49;;;;;;;2.45;1.48;;;15.50;99.90;;;;;;10535862;28;20514;-86
2022/09/21 08:48:19;;;;;;;2.83;1.38;;;15.00;99.90;;;;;;10547560;28;20520;-82
2022/09/21 08:53:48;;;;;;;3.10;1.80;;;14.40;99.90;;;;;;10559695;28;20193;-87
2022/09/21 08:59:14;;;;;;;1.77;1.40;;;14.20;1.00;;;;;;10535328;28;20238;-87
2022/09/21 09:05:00;;;;;;;5.43;1.87;;;14.00;99.90;;;;;;10538329;28;20239;-91
2022/09/21 09:10:37;;;;;;;11.63;5.00;;;14.00;99.90;;;;;;10546364;28;20228;-88
2022/09/21 09:16:10;;;;;;;3.30;1.80;;;14.00;99.90;;;;;;10545080;28;20211;-82
2022/09/21 09:21:40;;;;;;;1.40;1.10;;;13.90;99.90;;;;;;10546349;28;20300;-91
2022/09/21 09:27:42;;;;;;;2.00;1.33;;;14.00;60.00;;;;;;10518788;28;20203;-84
2022/09/21 09:33:15;;;;;;;1.10;0.88;;;14.60;1.00;;;;;;10508570;28;20233;-89
2022/09/21 09:38:39;;;;;;;6.35;3.15;;;15.10;99.90;;;;;;10557278;28;20454;-84
2022/09/21 09:44:15;;;;;;;2.03;1.35;;;15.60;1.00;;;;;;10529846;28;20195;-86
2022/09/21 09:49:54;;;;;;;2.75;1.10;;;15.70;2.50;;;;;;10545054;28;20282;-88
2022/09/21 09:55:18;;;;;;;3.67;0.90;;;17.50;1.00;;;;;;10511192;28;20199;-82
2022/09/21 10:00:40;;;;;;;1.50;0.77;;;19.00;1.00;;;;;;10531094;28;20306;-85
2022/09/21 10:06:01;;;;;;;2.25;0.90;;;20.50;1.00;;;;;;10555677;28;20193;-84
2022/09/21 10:11:34;;;;;;;5.15;1.20;;;21.40;1.00;;;;;;10517262;28;20191;-82
2022/09/21 10:17:05;;;;;;;3.00;1.20;;;22.00;1.00;;;;;;10546617;28;20205;-82
2022/09/21 10:22:29;;;;;;;1.23;0.95;;;22.10;1.00;;;;;;10561128;28;20211;-90
2022/09/21 10:27:51;;;;;;;2.22;0.70;;;22.50;1.00;;;;;;10539757;28;20237;-93
2022/09/21 10:33:21;;;;;;;1.35;0.52;;;22.60;1.00;;;;;;10529666;28;20440;-87
2022/09/21 10:38:42;;;;;;;1.50;0.85;;;23.10;1.00;;;;;;10528282;28;20571;-91
2022/09/21 10:44:15;;;;;;;1.33;0.70;;;23.30;1.00;;;;;;10529692;28;20535;-89
2022/09/21 10:49:41;;;;;;;2.55;0.63;;;23.50;1.00;;;;;;10543631;28;20207;-93
2022/09/21 10:55:04;;;;;;;1.10;0.70;;;23.80;1.00;;;;;;10533418;28;20815;-85
2022/09/21 11:00:28;;;;;;;1.00;0.70;;;24.10;1.00;;;;;;10528004;28;20234;-89
2022/09/21 11:05:52;;;;;;;3.72;0.77;;;23.90;1.00;;;;;;10528198;28;20194;-83
2022/09/21 11:11:24;;;;;;;1.45;0.80;;;23.90;1.00;;;;;;10556771;28;20265;-86
2022/09/21 11:16:57;;;;;;;2.72;0.40;;;23.90;1.00;;;;;;10559448;28;20268;-91
2022/09/21 11:22:21;;;;;;;1.27;0.30;;;24.10;1.00;;;;;;10556168;28;20205;-91
2022/09/21 11:27:48;;;;;;;0.65;0.50;;;24.40;1.00;;;;;;10542613;28;20203;-85
2022/09/21 11:33:24;;;;;;;0.73;0.70;;;23.20;1.00;;;;;;10564256;28;20264;-81
2022/09/21 11:39:04;;;;;;;1.00;0.40;;;20.50;1.00;;;;;;10548520;28;20231;-81
2022/09/21 11:44:55;;;;;;;0.63;0.45;;;20.60;1.00;;;;;;10520473;28;20213;-79
2022/09/21 11:50:45;;;;;;;0.75;0.50;;;22.30;1.00;;;;;;10547354;28;20247;-80
2022/09/21 11:56:16;;;;;;;3.08;1.45;;;22.80;1.00;;;;;;10520728;28;20505;-82
2022/09/21 12:01:53;;;;;;;5.55;0.90;;;22.20;1.00;;;;;;10522505;28;20240;-84
2022/09/21 12:07:54;;;;;;;0.68;0.63;;;22.40;1.00;;;;;;10562576;28;20194;-86
2022/09/21 12:13:41;;;;;;;0.77;0.50;;;23.30;1.00;;;;;;10548420;28;20221;-88
2022/09/21 12:19:20;;;;;;;1.55;0.63;;;23.10;1.00;;;;;;10574911;28;20245;-82
2022/09/21 12:25:02;;;;;;;0.77;0.70;;;21.40;1.00;;;;;;10537591;28;20240;-90
2022/09/21 12:30:24;;;;;;;1.73;0.98;;;20.80;1.00;;;;;;10463405;28;20219;-92
2022/09/21 12:35:52;;;;;;;1.05;0.90;;;20.20;1.00;;;;;;10473221;28;20245;-90
2022/09/21 12:41:21;;;;;;;1.23;0.73;;;20.30;1.00;;;;;;10458471;28;20243;-87
2022/09/21 12:46:50;;;;;;;1.65;0.65;;;20.20;1.00;;;;;;10481678;28;20218;-81
2022/09/21 12:52:24;;;;;;;2.60;1.20;;;19.40;1.00;;;;;;10494114;28;20198;-84
2022/09/21 12:58:28;;;;;;;1.90;1.40;;;19.10;2.30;;;;;;10491859;28;20548;-89
2022/09/21 13:04:02;;;;;;;1.52;0.52;;;18.90;1.00;;;;;;10451186;28;20210;-95
2022/09/21 13:09:25;;;;;;;3.45;1.50;;;18.70;1.00;;;;;;10504749;28;20190;-88
2022/09/21 13:15:02;;;;;;;3.50;1.77;;;18.70;1.00;;;;;;10482378;28;20369;-85
2022/09/21 13:20:24;;;;;;;4.28;1.80;;;18.00;1.00;;;;;;10493146;28;20230;-84
2022/09/21 13:26:03;;;;;;;5.88;4.40;;;17.30;1.00;;;;;;10488636;28;20194;-90
2022/09/21 13:31:41;;;;;;;3.05;1.40;;;17.20;1.00;;;;;;10492074;28;20245;-85
2022/09/21 13:37:27;;;;;;;0.50;0.50;;;18.20;1.00;;;;;;10483010;28;20221;-90
2022/09/21 13:42:48;;;;;;;0.85;0.65;;;19.30;1.00;;;;;;10509739;28;20443;-85
2022/09/21 13:48:24;;;;;;;5.55;2.70;;;20.00;1.00;;;;;;10488497;28;20200;-88
2022/09/21 13:53:52;;;;;;;3.60;2.30;;;20.10;1.00;;;;;;10486858;28;20277;-83
2022/09/21 13:59:23;;;;;;;3.08;1.38;;;20.00;1.00;;;;;;10490219;28;20247;-85
2022/09/21 14:04:49;;;;;;;6.20;2.92;;;19.10;1.00;;;;;;10500539;28;20260;-90
2022/09/21 14:10:18;;;;;;;3.90;1.52;;;18.20;1.00;;;;;;10483743;28;20280;-91
2022/09/21 14:15:40;;;;;;;2.92;1.00;;;17.40;1.00;;;;;;10475615;28;20190;-93
2022/09/21 14:21:16;;;;;;;2.75;1.48;;;16.80;1.00;;;;;;10484933;28;20283;-80
2022/09/21 14:26:40;;;;;;;2.42;1.10;;;16.60;1.00;;;;;;10478917;28;20201;-79
2022/09/21 14:32:06;;;;;;;2.83;1.50;;;16.60;99.90;;;;;;10493223;28;20499;-86
2022/09/21 14:37:36;;;;;;;3.50;1.20;;;16.60;99.90;;;;;;10534524;28;20246;-83
2022/09/21 14:43:02;;;;;;;1.63;1.05;;;16.70;99.90;;;;;;10528237;28;20199;-86
2022/09/21 14:48:45;;;;;;;1.70;1.00;;;16.70;99.90;;;;;;10555378;28;20200;-85
2022/09/21 14:54:30;;;;;;;2.30;1.33;;;16.60;99.90;;;;;;10525432;28;20236;-84
2022/09/21 15:00:19;;;;;;;4.28;1.30;;;16.10;1.00;;;;;;10534116;28;20223;-84
2022/09/21 15:05:49;;;;;;;2.55;1.70;;;15.70;99.90;;;;;;10548562;28;20205;-85
2022/09/21 15:11:29;;;;;;;6.07;2.25;;;15.60;1.00;;;;;;10556947;28;20192;-83
2022/09/21 15:16:51;;;;;;;7.13;2.25;;;15.80;1.00;;;;;;10569220;28;20188;-95
2022/09/21 15:22:19;;;;;;;9.90;3.35;;;15.60;99.90;;;;;;10548759;28;20525;-87
2022/09/21 15:27:45;;;;;;;7.13;4.70;;;15.30;29.80;;;;;;10517109;28;20528;-87
2022/09/21 15:33:10;;;;;;;3.80;2.47;;;15.00;99.90;;;;;;10556977;28;20254;-92
2022/09/21 15:38:35;;;;;;;4.57;2.45;;;14.80;1.00;;;;;;10525968;28;20238;-83
2022/09/21 15:44:10;;;;;;;5.13;3.45;;;14.70;99.90;;;;;;10530057;28;20546;-80
2022/09/21 15:49:33;;;;;;;5.38;3.95;;;14.60;1.00;;;;;;10527527;28;20190;-87
2022/09/21 15:54:59;;;;;;;10.27;4.90;;;14.50;76.40;;;;;;10559261;28;20535;-81
2022/09/21 16:00:23;;;;;;;8.20;5.50;;;14.50;99.90;;;;;;10532418;28;20272;-87
2022/09/21 16:05:52;;;;;;;18.00;10.07;;;14.50;1.00;;;;;;10519091;28;20225;-81
2022/09/21 16:11:26;;;;;;;16.37;9.43;;;14.30;99.90;;;;;;10526845;28;20226;-87
2022/09/21 16:17:08;;;;;;;17.65;9.60;;;14.10;99.90;;;;;;10565629;28;20192;-91
2022/09/21 16:22:37;;;;;;;11.30;7.27;;;14.00;99.90;;;;;;10574417;28;20231;-80
2022/09/21 16:28:16;;;;;;;9.07;5.17;;;13.80;99.90;;;;;;10541282;28;20195;-80
2022/09/21 16:33:47;;;;;;;17.93;10.37;;;13.70;40.70;;;;;;10565538;28;20414;-79
2022/09/21 16:39:10;;;;;;;23.27;9.27;;;13.60;55.10;;;;;;10536223;28;20224;-81
2022/09/21 16:44:38;;;;;;;28.67;10.23;;;13.40;99.90;;;;;;10552083;28;20202;-80
2022/09/21 16:50:00;;;;;;;43.63;14.37;;;13.30;1.00;;;;;;10552630;28;20192;-89
2022/09/21 16:55:21;;;;;;;25.50;10.97;;;13.30;99.90;;;;;;10552551;28;20550;-91
2022/09/21 17:00:50;;;;;;;16.23;9.57;;;13.30;1.00;;;;;;10565646;28;20225;-89
2022/09/21 17:06:19;;;;;;;20.63;11.40;;;13.20;1.00;;;;;;10545112;28;20191;-81
2022/09/21 17:11:44;;;;;;;16.47;9.87;;;13.20;99.90;;;;;;10582325;28;20193;-80
2022/09/21 17:17:16;;;;;;;15.47;8.47;;;13.10;99.90;;;;;;10552159;28;20227;-89
2022/09/21 17:22:37;;;;;;;13.93;8.93;;;13.00;1.00;;;;;;10565661;28;20295;-85
2022/09/21 17:28:04;;;;;;;19.43;11.27;;;13.00;1.00;;;;;;10562388;28;20194;-81
2022/09/21 17:33:41;;;;;;;18.60;9.17;;;12.80;1.00;;;;;;10566926;28;20314;-79
2022/09/21 17:39:05;;;;;;;14.40;6.77;;;12.70;1.00;;;;;;10557129;28;20220;-81
2022/09/21 17:44:54;;;;;;;10.57;6.17;;;12.60;1.00;;;;;;10530224;28;20279;-78
2022/09/21 17:50:31;;;;;;;12.53;7.23;;;12.50;68.00;;;;;;10575748;28;20196;-77
2022/09/21 17:56:13;;;;;;;16.43;9.40;;;12.40;99.90;;;;;;10576959;28;20226;-76
2022/09/21 18:01:40;;;;;;;19.83;10.20;;;12.30;99.90;;;;;;10560542;28;20236;-78
2022/09/21 18:07:18;;;;;;;18.23;9.27;;;12.20;1.00;;;;;;10587927;28;20793;-77
2022/09/21 18:12:48;;;;;;;15.80;8.30;;;12.00;1.00;;;;;;10575750;28;20547;-80
2022/09/21 18:18:19;;;;;;;15.17;6.97;;;12.00;1.00;;;;;;10519636;28;20201;-81
2022/09/21 18:23:50;;;;;;;10.90;6.53;;;11.90;1.00;;;;;;10511539;28;20460;-80
2022/09/21 18:29:32;;;;;;;10.17;5.63;;;11.80;1.00;;;;;;10519531;28;20278;-79
2022/09/21 18:35:22;;;;;;;10.20;5.40;;;11.80;1.00;;;;;;10542011;28;20226;-79
2022/09/21 18:41:10;;;;;;;11.57;7.00;;;11.70;1.00;;;;;;10546172;28;20236;-87
2022/09/21 18:46:52;;;;;;;14.93;9.10;;;11.70;2.10;;;;;;10561347;28;20267;-82
2022/09/21 18:52:18;;;;;;;19.00;8.80;;;11.60;99.90;;;;;;10561991;28;20212;-78
2022/09/21 18:57:40;;;;;;;18.03;9.60;;;11.50;99.90;;;;;;10546370;28;20206;-79
2022/09/21 19:03:09;;;;;;;19.90;10.57;;;11.40;99.90;;;;;;10557334;28;20253;-81
2022/09/21 19:09:13;;;;;;;18.03;9.53;;;11.30;99.90;;;;;;10560668;28;20192;-80
2022/09/21 19:14:43;;;;;;;30.97;17.67;;;11.10;1.00;;;;;;10546232;28;20191;-79
2022/09/21 19:20:42;;;;;;;23.93;13.17;;;11.00;1.00;;;;;;10546557;28;20219;-79
2022/09/21 19:26:32;;;;;;;15.70;9.20;;;11.10;1.00;;;;;;10542065;28;20245;-80
2022/09/21 19:31:53;;;;;;;13.17;7.70;;;11.00;1.00;;;;;;10559621;28;20187;-79
2022/09/21 19:37:15;;;;;;;14.00;7.60;;;10.90;1.00;;;;;;10561109;28;20199;-79
2022/09/21 19:43:15;;;;;;;14.57;7.57;;;10.80;1.00;;;;;;10544820;28;20229;-80
2022/09/21 19:48:42;;;;;;;15.87;7.67;;;10.80;1.00;;;;;;10498322;28;20372;-79
2022/09/21 19:59:55;;;;;;;9.43;6.37;;;10.80;1.00;;;;;;10565030;28;20227;-81
2022/09/21 20:05:27;;;;;;;8.73;4.90;;;10.70;1.00;;;;;;10522219;28;20569;-79
2022/09/21 20:11:16;;;;;;;5.53;3.73;;;10.70;1.00;;;;;;10505848;28;20207;-80
2022/09/21 20:16:52;;;;;;;5.30;3.63;;;10.50;1.00;;;;;;10491542;28;20513;-79
2022/09/21 20:22:26;;;;;;;6.00;3.63;;;10.50;1.00;;;;;;10516361;28;20269;-82
2022/09/21 20:27:51;;;;;;;9.13;3.87;;;10.40;1.00;;;;;;10517095;28;20199;-84
2022/09/21 20:33:15;;;;;;;6.37;3.70;;;10.30;1.00;;;;;;10528406;28;20233;-88
2022/09/21 20:38:36;;;;;;;7.60;3.90;;;10.30;1.00;;;;;;10552500;28;20489;-88
2022/09/21 20:43:58;;;;;;;5.40;4.00;;;10.20;67.80;;;;;;10566051;28;20274;-90
2022/09/21 20:49:19;;;;;;;11.47;5.73;;;10.10;99.90;;;;;;10551964;28;20230;-89
2022/09/21 20:54:42;;;;;;;23.70;8.23;;;10.10;99.90;;;;;;10566265;28;20197;-89
2022/09/21 21:00:12;;;;;;;37.97;11.03;;;10.10;99.90;;;;;;10565366;28;20399;-89
2022/09/21 21:05:33;;;;;;;32.03;10.30;;;10.10;99.90;;;;;;10579798;28;20236;-82
2022/09/21 21:10:54;;;;;;;24.43;8.00;;;10.00;99.90;;;;;;10565623;28;20486;-83
2022/09/21 21:16:16;;;;;;;19.23;6.13;;;9.90;99.90;;;;;;10565187;28;20197;-90
2022/09/21 21:21:37;;;;;;;13.30;5.33;;;9.90;99.90;;;;;;10536110;28;20442;-90
2022/09/21 21:26:59;;;;;;;7.77;4.40;;;9.80;99.90;;;;;;10535991;28;20511;-86
2022/09/21 21:32:25;;;;;;;7.20;4.13;;;9.70;99.90;;;;;;10516568;28;20233;-89
2022/09/21 21:37:46;;;;;;;8.47;4.07;;;9.70;99.90;;;;;;10576187;28;20212;-83
2022/09/21 21:43:09;;;;;;;7.57;4.27;;;9.60;99.90;;;;;;10576660;28;20525;-80
2022/09/21 21:48:30;;;;;;;8.30;4.20;;;9.60;99.90;;;;;;10581694;28;20189;-81
2022/09/21 21:53:53;;;;;;;5.73;3.70;;;9.60;99.90;;;;;;10566177;28;20201;-87
2022/09/21 21:59:15;;;;;;;5.83;3.60;;;9.50;99.90;;;;;;10562397;28;20467;-89
2022/09/21 22:04:37;;;;;;;5.30;3.70;;;9.50;99.90;;;;;;10564561;28;20222;-89
2022/09/21 22:09:59;;;;;;;5.37;3.40;;;9.40;99.90;;;;;;10563825;28;20213;-89
2022/09/21 22:15:20;;;;;;;5.17;3.47;;;9.40;99.90;;;;;;10549902;28;20282;-85
2022/09/21 22:20:42;;;;;;;4.37;3.10;;;9.30;99.90;;;;;;10564584;28;20224;-90
2022/09/21 22:26:12;;;;;;;5.73;3.33;;;9.30;99.90;;;;;;10565459;28;20218;-89
2022/09/21 22:31:37;;;;;;;4.23;2.77;;;9.30;99.90;;;;;;10563252;28;20204;-85
2022/09/21 22:36:59;;;;;;;4.20;2.93;;;9.30;99.90;;;;;;10564178;28;20193;-84
2022/09/21 22:42:20;;;;;;;7.20;3.77;;;9.30;99.90;;;;;;10557065;28;20225;-81
2022/09/21 22:47:41;;;;;;;6.40;4.17;;;9.30;99.90;;;;;;10546954;28;20189;-88
2022/09/21 22:53:03;;;;;;;4.30;2.93;;;9.20;99.90;;;;;;10562895;28;20234;-89
2022/09/21 22:58:24;;;;;;;7.67;3.00;;;9.20;99.90;;;;;;10561439;28;20201;-85
2022/09/21 23:03:47;;;;;;;5.30;3.00;;;9.20;99.90;;;;;;10556242;28;20238;-87
2022/09/21 23:09:20;;;;;;;4.50;2.50;;;9.20;99.90;;;;;;10576661;28;20213;-82
2022/09/21 23:14:41;;;;;;;4.57;2.47;;;9.10;99.90;;;;;;10547892;28;20213;-87
2022/09/21 23:20:02;;;;;;;2.60;2.00;;;9.10;99.90;;;;;;10562287;28;20221;-88
2022/09/21 23:25:24;;;;;;;3.23;2.10;;;9.20;99.90;;;;;;10548881;28;20212;-89
2022/09/21 23:30:45;;;;;;;2.03;1.80;;;9.20;99.90;;;;;;10531265;28;20219;-90
2022/09/21 23:36:09;;;;;;;4.13;2.07;;;9.20;99.90;;;;;;10539339;28;20234;-89
2022/09/21 23:41:33;;;;;;;3.80;2.27;;;9.20;1.00;;;;;;10541052;28;20268;-81
2022/09/21 23:46:54;;;;;;;3.83;2.13;;;9.30;99.90;;;;;;10520800;28;20200;-88
2022/09/21 23:52:15;;;;;;;5.87;1.90;;;9.30;99.90;;;;;;10547756;28;20192;-88
2022/09/21 23:57:37;;;;;;;7.97;2.03;;;9.30;99.90;;;;;;10568247;28;20193;-91
